DK-0014 weather

Nordborg Flyveplads
Sønderborg, South Denmark, Denmark

Public forecast

Using degrees Celsius for public forecast. Weather courtesy of forecast.io.

METAR (pilot weather report)

Closest report is Sønderborg Airport, 6.8 nm (12.5 km) SSE. Retrieved 2019/07/22 19:20 UTC (31 minutes ago):

EKSB 221920Z AUTO 25006KT 220V310 9999NDV BKN009/// BKN030/// 18/17 Q1019

TAF (pilot weather forecast)

Forecast is more than 12 hours old.

Closest forecast is Sønderborg Airport, 6.8 nm (12.5 km) SSE. Retrieved 2016/01/27 09:03 UTC (3 years ago):

TAF TAF EKSB 270856Z 2709/2721 23022KT 5000 -RA BR BKN008 TEMPO 2709/2721 24025G40KT 2000 RADZ BKN004